Weather at Sankt Donat / Mairist Airfield

Public forecast

Using degrees Celsius for public forecast. Weather courtesy of forecast.io.

Closest aviation weather report (METAR) to Sankt Donat / Mairist Airfield

Closest report is Klagenfurt Airport, 6.8 nm (12.6 km) SSW.

2024/05/22 21:20 (retrieved 26 minutes ago)

LOWK 222120Z AUTO VRB02KT 9999 FEW060 BKN080 15/12 Q1015 NOSIG

Closest aviation forecast (TAF) to Sankt Donat / Mairist Airfield

Closest forecast is Klagenfurt Airport, 6.8 nm (12.6 km) SSW.

2024/05/22 20:53 Ammendment (retrieved 53 minutes ago)

TAF AMD LOWK 222048Z 2220/2318 VRB03KT 9999 SCT030 BKN070 TX20/2313Z TN11/2303Z TEMPO 2220/2223 -RA PROB40 TEMPO 2221/2307 BKN007 TEMPO 2310/2318 09008KT SHRA FEW030CB SCT040 PROB40 TEMPO 2312/2317 VRB15KT 3000 TSRA